createdAt,value
2022-09-23T00:05:20.347Z,14.85
2022-09-23T00:08:41.333Z,15.32
2022-09-23T00:11:58.335Z,15.73
2022-09-23T00:19:09.704Z,16.01
2022-09-23T00:22:48.497Z,16.57
2022-09-23T00:26:35.713Z,16.55
2022-09-23T00:29:45.294Z,17.72
2022-09-23T00:33:14.577Z,18.13
2022-09-23T00:36:45.742Z,18.05
2022-09-23T00:40:07.040Z,18.62
2022-09-23T00:43:24.571Z,19.30
2022-09-23T00:46:45.465Z,19.69
2022-09-23T00:50:29.815Z,19.52
2022-09-23T00:54:19.333Z,20.38
2022-09-23T00:58:40.662Z,20.13
2022-09-23T01:01:33.567Z,20.94
2022-09-23T01:04:42.051Z,21.23
2022-09-23T01:07:53.157Z,21.14
2022-09-23T01:11:43.034Z,22.27
2022-09-23T01:15:07.827Z,22.43
2022-09-23T01:18:47.568Z,23.11
2022-09-23T01:22:24.455Z,23.24
2022-09-23T01:25:37.977Z,23.33
2022-09-23T01:29:08.058Z,23.36
2022-09-23T01:32:36.148Z,23.56
2022-09-23T01:36:14.105Z,23.81
2022-09-23T01:39:38.796Z,23.98
2022-09-23T01:43:13.195Z,23.26
2022-09-23T01:46:35.561Z,23.22
2022-09-23T01:49:55.241Z,22.28
2022-09-23T01:53:09.477Z,22.36
2022-09-23T01:56:34.349Z,22.04
2022-09-23T01:59:48.982Z,22.10
2022-09-23T02:03:24.261Z,21.92
2022-09-23T02:06:51.438Z,22.37
2022-09-23T02:10:13.378Z,21.90
2022-09-23T02:13:31.052Z,22.01
2022-09-23T02:16:45.123Z,22.22
2022-09-23T02:20:05.532Z,22.43
2022-09-23T02:24:04.076Z,21.96
2022-09-23T02:27:32.949Z,21.85
2022-09-23T02:30:51.579Z,21.47
2022-09-23T02:34:16.394Z,20.88
2022-09-23T02:37:33.092Z,20.90
2022-09-23T02:40:57.561Z,20.84
2022-09-23T02:44:30.938Z,21.05
2022-09-23T02:48:03.024Z,20.50
2022-09-23T02:51:34.634Z,20.53
2022-09-23T02:54:46.729Z,20.59
2022-09-23T02:57:54.517Z,20.60
2022-09-23T03:01:58.979Z,20.83
2022-09-23T03:05:36.738Z,20.92
2022-09-23T03:08:58.147Z,20.02
2022-09-23T03:12:38.156Z,20.59
2022-09-23T03:16:06.063Z,20.52
2022-09-23T03:19:36.146Z,20.66
2022-09-23T03:22:56.706Z,20.04
2022-09-23T03:26:24.849Z,20.76
2022-09-23T03:29:30.150Z,20.62
2022-09-23T03:32:39.273Z,20.48
2022-09-23T03:36:16.091Z,20.67
2022-09-23T03:39:34.340Z,20.31
2022-09-23T03:42:51.178Z,20.12
2022-09-23T03:46:46.781Z,20.08
2022-09-23T03:49:54.975Z,20.55
2022-09-23T03:53:02.454Z,20.12
2022-09-23T03:56:07.491Z,20.13
2022-09-23T03:59:20.760Z,20.86
2022-09-23T04:02:39.740Z,20.47
2022-09-23T04:06:05.573Z,20.30
2022-09-23T04:09:41.017Z,20.08
2022-09-23T04:13:20.988Z,20.67
2022-09-23T04:16:36.078Z,20.31
2022-09-23T04:19:48.493Z,20.58
2022-09-23T04:22:53.362Z,20.45
2022-09-23T04:25:59.526Z,20.29
2022-09-23T04:29:07.654Z,20.63
2022-09-23T04:32:14.545Z,20.74
2022-09-23T04:35:21.873Z,20.79
2022-09-23T04:38:49.413Z,20.15
2022-09-23T04:42:04.853Z,20.66
2022-09-23T04:45:22.637Z,20.44
2022-09-23T04:48:44.202Z,20.57
2022-09-23T04:51:55.274Z,20.58
2022-09-23T04:55:26.741Z,20.62
2022-09-23T04:58:40.589Z,20.65
2022-09-23T05:02:06.262Z,20.74
2022-09-23T05:05:25.331Z,20.76
2022-09-23T05:09:16.417Z,21.15
2022-09-23T05:12:37.609Z,21.08
2022-09-23T05:15:55.873Z,20.67
2022-09-23T05:19:00.794Z,20.81
2022-09-23T05:22:06.990Z,20.53
2022-09-23T05:25:17.101Z,20.89
2022-09-23T05:28:38.336Z,20.72
2022-09-23T05:31:48.333Z,20.91
2022-09-23T05:35:01.468Z,20.75
2022-09-23T05:38:24.434Z,20.66
2022-09-23T05:41:36.319Z,21.21
2022-09-23T05:45:06.740Z,20.82
2022-09-23T05:48:36.139Z,20.86
2022-09-23T05:51:46.953Z,20.65
2022-09-23T05:54:51.747Z,20.67
2022-09-23T05:58:01.146Z,20.85
2022-09-23T06:01:18.942Z,21.20
2022-09-23T06:04:26.835Z,20.94
2022-09-23T06:07:41.818Z,21.18
2022-09-23T06:10:57.139Z,21.17
2022-09-23T06:14:03.342Z,21.12
2022-09-23T06:17:11.239Z,20.78
2022-09-23T06:20:16.289Z,20.66
2022-09-23T06:23:23.944Z,20.82
2022-09-23T06:26:34.771Z,20.87
2022-09-23T06:30:04.006Z,20.55
2022-09-23T06:33:32.566Z,20.90
2022-09-23T06:37:01.766Z,20.78
2022-09-23T06:40:16.347Z,20.47
2022-09-23T06:43:22.531Z,20.81
2022-09-23T06:46:31.331Z,20.61
2022-09-23T06:49:37.103Z,20.47
2022-09-23T06:52:59.186Z,20.77
2022-09-23T06:56:09.185Z,20.91
2022-09-23T06:59:27.044Z,20.51
2022-09-23T07:02:33.650Z,20.78
2022-09-23T07:05:40.888Z,20.68
2022-09-23T07:08:49.323Z,20.68
2022-09-23T07:12:06.719Z,20.59
2022-09-23T07:15:16.382Z,20.64
2022-09-23T07:18:27.124Z,20.35
2022-09-23T07:21:49.370Z,20.33
2022-09-23T07:25:05.787Z,20.30
2022-09-23T07:28:14.788Z,20.34
2022-09-23T07:31:35.174Z,20.33
2022-09-23T07:34:47.295Z,20.02
2022-09-23T07:37:53.832Z,20.02
2022-09-23T07:41:09.842Z,19.92
2022-09-23T07:44:21.082Z,20.17
2022-09-23T07:47:36.379Z,19.84
2022-09-23T07:51:03.860Z,20.08
2022-09-23T07:54:14.053Z,19.91
2022-09-23T07:57:19.392Z,19.70
2022-09-23T08:00:24.258Z,19.36
2022-09-23T08:03:33.406Z,19.15
2022-09-23T08:06:54.343Z,19.35
2022-09-23T08:10:07.933Z,19.35
2022-09-23T08:13:38.231Z,18.60
2022-09-23T08:16:48.621Z,18.20
2022-09-23T08:19:59.004Z,18.15
2022-09-23T08:23:12.566Z,18.25
2022-09-23T08:26:25.101Z,17.99
2022-09-23T08:29:34.011Z,17.64
2022-09-23T08:32:42.076Z,17.89
2022-09-23T08:35:57.213Z,18.00
2022-09-23T08:39:08.012Z,17.29
2022-09-23T08:42:34.881Z,17.90
2022-09-23T08:46:01.584Z,17.39
2022-09-23T08:49:19.622Z,17.49
2022-09-23T08:52:59.892Z,16.66
2022-09-23T08:56:28.461Z,16.36
2022-09-23T08:59:45.689Z,16.40
2022-09-23T09:03:00.077Z,16.71
2022-09-23T09:06:20.598Z,16.04
2022-09-23T09:09:46.825Z,16.22
2022-09-23T09:13:18.354Z,16.41
2022-09-23T09:17:01.179Z,15.68
2022-09-23T09:20:37.937Z,16.00
2022-09-23T09:23:52.973Z,15.65
2022-09-23T09:26:59.574Z,15.51
2022-09-23T09:30:04.901Z,15.53
2022-09-23T09:33:16.817Z,15.05
2022-09-23T09:36:36.876Z,15.59
2022-09-23T09:39:43.538Z,15.10
2022-09-23T09:42:50.838Z,14.99
2022-09-23T09:46:16.812Z,15.12
2022-09-23T09:50:02.198Z,14.69
2022-09-23T09:53:36.644Z,14.35
2022-09-23T09:56:44.137Z,14.29
2022-09-23T09:59:55.932Z,14.55
2022-09-23T10:03:11.885Z,14.50
2022-09-23T10:06:20.495Z,14.00
2022-09-23T10:09:35.862Z,14.49
2022-09-23T10:12:49.863Z,14.57
2022-09-23T10:15:57.728Z,14.43
2022-09-23T10:19:04.844Z,13.78
2022-09-23T10:22:25.898Z,13.98
2022-09-23T10:25:30.734Z,13.70
2022-09-23T10:28:51.322Z,14.12
2022-09-23T10:32:23.340Z,14.22
2022-09-23T10:35:30.664Z,13.46
2022-09-23T10:38:35.571Z,13.92
2022-09-23T10:42:23.526Z,13.52
2022-09-23T10:45:53.348Z,13.91
2022-09-23T10:49:19.829Z,13.69
2022-09-23T10:52:37.252Z,13.34
2022-09-23T10:56:09.913Z,13.13
2022-09-23T10:59:24.374Z,13.14
2022-09-23T11:02:40.161Z,13.06
2022-09-23T11:06:20.018Z,13.08
2022-09-23T11:09:34.800Z,13.38
2022-09-23T11:12:58.294Z,12.97
2022-09-23T11:16:23.672Z,13.28
2022-09-23T11:19:52.475Z,13.44
2022-09-23T11:23:23.077Z,13.44
2022-09-23T11:27:11.460Z,13.17
2022-09-23T11:30:21.193Z,13.32
2022-09-23T11:33:37.645Z,13.19
2022-09-23T11:36:56.047Z,12.75
2022-09-23T11:40:13.792Z,12.98
2022-09-23T11:43:29.402Z,12.37
2022-09-23T11:46:43.091Z,12.55
2022-09-23T11:49:56.743Z,12.95
2022-09-23T11:53:08.818Z,13.08
2022-09-23T11:56:45.535Z,12.86
2022-09-23T11:59:59.422Z,12.66
2022-09-23T12:03:06.291Z,12.31
2022-09-23T12:06:23.795Z,12.10
2022-09-23T12:09:58.085Z,12.20
2022-09-23T12:13:24.674Z,12.35
2022-09-23T12:17:10.927Z,12.10
2022-09-23T12:20:32.129Z,12.19
2022-09-23T12:24:04.099Z,12.28
2022-09-23T12:27:13.424Z,12.26
2022-09-23T12:30:24.516Z,11.82
2022-09-23T12:33:35.095Z,11.60
2022-09-23T12:36:43.650Z,11.73
2022-09-23T12:40:07.725Z,11.36
2022-09-23T12:43:33.877Z,11.99
2022-09-23T12:47:27.928Z,11.27
2022-09-23T12:51:01.847Z,11.99
2022-09-23T12:54:09.831Z,11.84
2022-09-23T12:57:36.054Z,11.79
2022-09-23T13:00:43.886Z,11.54
2022-09-23T13:04:12.681Z,11.73
2022-09-23T13:07:35.041Z,11.58
2022-09-23T13:10:56.274Z,11.23
2022-09-23T13:14:05.466Z,11.44
2022-09-23T13:17:44.839Z,10.99
2022-09-23T13:20:57.289Z,11.26
2022-09-23T13:24:29.152Z,11.48
2022-09-23T13:27:36.839Z,11.21
2022-09-23T13:30:56.995Z,11.64
2022-09-23T13:34:05.827Z,11.83
2022-09-23T13:37:23.931Z,11.25
2022-09-23T13:40:35.359Z,11.18
2022-09-23T13:43:45.019Z,11.28
2022-09-23T13:46:53.272Z,11.34
2022-09-23T13:50:02.852Z,11.00
2022-09-23T13:53:11.297Z,11.11
2022-09-23T13:56:17.191Z,11.38
2022-09-23T13:59:31.865Z,11.67
2022-09-23T14:02:45.213Z,11.42
2022-09-23T14:05:53.505Z,11.15
2022-09-23T14:09:09.373Z,11.70
2022-09-23T14:12:25.077Z,11.01
2022-09-23T14:15:38.899Z,11.18
2022-09-23T14:18:50.481Z,11.63
2022-09-23T14:22:12.501Z,10.94
2022-09-23T14:25:22.653Z,10.88
2022-09-23T14:28:29.034Z,10.97
2022-09-23T14:31:36.232Z,10.83
2022-09-23T14:34:45.952Z,11.10
2022-09-23T14:38:12.970Z,10.86
2022-09-23T14:41:27.679Z,10.43
2022-09-23T14:44:36.075Z,10.30
2022-09-23T14:48:06.156Z,10.48
2022-09-23T14:51:17.040Z,10.80
2022-09-23T14:54:44.876Z,10.88
2022-09-23T14:57:49.947Z,10.26
2022-09-23T15:01:02.570Z,10.15
2022-09-23T15:04:21.620Z,10.18
2022-09-23T15:07:27.948Z,10.14
2022-09-23T15:10:35.846Z,10.60
2022-09-23T15:13:50.457Z,10.10
2022-09-23T15:16:58.504Z,10.30
2022-09-23T15:20:23.317Z,10.05
2022-09-23T15:23:42.440Z,10.61
2022-09-23T15:26:55.112Z,10.66
2022-09-23T15:30:29.618Z,10.29
2022-09-23T15:33:35.186Z,10.04
2022-09-23T15:36:40.811Z,10.12
2022-09-23T15:39:48.906Z,10.04
2022-09-23T15:43:08.344Z,10.06
2022-09-23T15:46:23.291Z,9.84
2022-09-23T15:49:40.472Z,9.88
2022-09-23T15:52:54.236Z,9.58
2022-09-23T15:56:25.932Z,9.74
2022-09-23T15:59:36.147Z,10.10
2022-09-23T16:02:41.923Z,10.49
2022-09-23T16:05:50.275Z,9.62
2022-09-23T16:09:03.570Z,10.31
2022-09-23T16:12:14.602Z,9.96
2022-09-23T16:15:29.886Z,10.76
2022-09-23T16:18:42.866Z,10.66
2022-09-23T16:21:50.836Z,10.22
2022-09-23T16:25:05.113Z,10.69
2022-09-23T16:28:15.954Z,10.62
2022-09-23T16:31:31.696Z,10.64
2022-09-23T16:34:39.498Z,10.34
2022-09-23T16:37:50.088Z,10.32
2022-09-23T16:41:01.656Z,10.80
2022-09-23T16:44:09.157Z,10.63
2022-09-23T16:47:22.693Z,10.53
2022-09-23T16:50:27.784Z,10.40
2022-09-23T16:53:38.480Z,10.81
2022-09-23T16:56:50.513Z,10.77
2022-09-23T17:00:16.690Z,9.94
2022-09-23T17:03:44.352Z,10.16
2022-09-23T17:06:55.493Z,9.97
2022-09-23T17:10:14.473Z,10.20
2022-09-23T17:13:21.909Z,10.19
2022-09-23T17:16:31.593Z,10.21
2022-09-23T17:19:42.184Z,10.31
2022-09-23T17:22:46.836Z,10.59
2022-09-23T17:25:51.626Z,10.28
2022-09-23T17:28:57.560Z,10.66
2022-09-23T17:32:11.443Z,9.91
2022-09-23T17:35:23.157Z,10.59
2022-09-23T17:38:41.541Z,10.27
2022-09-23T17:41:46.452Z,10.20
2022-09-23T17:45:10.217Z,10.48
2022-09-23T17:48:23.423Z,10.26
2022-09-23T17:51:38.609Z,10.86
2022-09-23T17:54:56.740Z,10.26
2022-09-23T17:58:06.724Z,10.52
2022-09-23T18:01:47.155Z,10.61
2022-09-23T18:04:56.573Z,10.14
2022-09-23T18:08:06.030Z,10.11
2022-09-23T18:11:26.513Z,10.42
2022-09-23T18:15:38.289Z,9.80
2022-09-23T18:18:10.131Z,10.71
2022-09-23T18:21:18.031Z,10.66
2022-09-23T18:24:38.243Z,10.39
2022-09-23T18:27:50.987Z,10.90
2022-09-23T18:31:02.580Z,9.78
2022-09-23T18:34:20.151Z,10.38
2022-09-23T18:37:27.735Z,10.29
2022-09-23T18:40:48.098Z,10.40
2022-09-23T18:44:19.691Z,9.97
2022-09-23T18:47:57.703Z,10.24
2022-09-23T18:51:08.151Z,10.64
2022-09-23T18:54:37.367Z,10.61
2022-09-23T18:57:55.200Z,10.55
2022-09-23T19:01:10.975Z,10.59
2022-09-23T19:04:24.515Z,11.14
2022-09-23T19:07:36.433Z,10.60
2022-09-23T19:10:44.181Z,10.50
2022-09-23T19:13:56.203Z,10.86
2022-09-23T19:17:01.403Z,10.73
2022-09-23T19:20:08.496Z,10.78
2022-09-23T19:23:13.143Z,10.70
2022-09-23T19:26:23.077Z,10.97
2022-09-23T19:29:30.783Z,11.00
2022-09-23T19:32:40.106Z,11.20
2022-09-23T19:35:49.840Z,10.99
2022-09-23T19:38:58.158Z,10.95
2022-09-23T19:42:05.619Z,11.15
2022-09-23T19:45:19.482Z,10.89
2022-09-23T19:48:24.330Z,11.05
2022-09-23T19:51:30.161Z,11.14
2022-09-23T19:54:34.640Z,10.78
2022-09-23T19:57:44.374Z,10.57
2022-09-23T20:00:49.390Z,10.54
2022-09-23T20:03:54.447Z,10.88
2022-09-23T20:07:01.926Z,11.37
2022-09-23T20:10:08.351Z,10.93
2022-09-23T20:13:16.145Z,11.10
2022-09-23T20:16:22.074Z,11.03
2022-09-23T20:19:26.784Z,11.08
2022-09-23T20:22:35.017Z,11.18
2022-09-23T20:25:59.359Z,11.12
2022-09-23T20:29:04.652Z,10.96
2022-09-23T20:32:12.545Z,11.01
2022-09-23T20:35:18.492Z,11.22
2022-09-23T20:38:25.898Z,11.49
2022-09-23T20:41:32.310Z,11.37
2022-09-23T20:44:44.061Z,11.29
2022-09-23T20:47:51.873Z,10.84
2022-09-23T20:51:07.405Z,10.36
2022-09-23T20:54:14.958Z,10.85
2022-09-23T20:57:22.881Z,10.72
2022-09-23T21:00:30.306Z,10.87
2022-09-23T21:03:37.918Z,10.89
2022-09-23T21:06:42.559Z,10.90
2022-09-23T21:09:47.119Z,11.04
2022-09-23T21:12:55.198Z,10.81
2022-09-23T21:16:12.169Z,11.25
2022-09-23T21:19:16.694Z,10.95
2022-09-23T21:22:30.745Z,11.31
2022-09-23T21:25:37.264Z,11.47
2022-09-23T21:28:46.064Z,11.57
2022-09-23T21:31:53.187Z,11.52
2022-09-23T21:35:00.750Z,11.76
2022-09-23T21:38:07.014Z,11.38
2022-09-23T21:41:12.475Z,11.76
2022-09-23T21:44:17.039Z,11.82
2022-09-23T21:47:21.470Z,12.00
2022-09-23T21:50:39.306Z,11.96
2022-09-23T21:53:47.654Z,12.37
2022-09-23T21:56:55.632Z,12.26
2022-09-23T22:00:00.338Z,12.67
2022-09-23T22:03:09.397Z,12.61
2022-09-23T22:06:22.345Z,12.99
2022-09-23T22:09:27.848Z,12.88
2022-09-23T22:12:37.241Z,12.68
2022-09-23T22:15:42.829Z,13.24
2022-09-23T22:18:47.557Z,14.14
2022-09-23T22:21:53.528Z,14.34
2022-09-23T22:24:59.570Z,14.35
2022-09-23T22:28:23.185Z,14.38
2022-09-23T22:31:46.121Z,14.45
2022-09-23T22:34:52.349Z,14.66
2022-09-23T22:38:07.521Z,14.52
2022-09-23T22:41:17.665Z,14.60
2022-09-23T22:44:22.819Z,15.11
2022-09-23T22:47:33.175Z,15.32
2022-09-23T22:51:01.188Z,15.33
2022-09-23T22:54:07.762Z,15.00
2022-09-23T22:57:32.577Z,15.06
2022-09-23T23:00:50.108Z,14.85
2022-09-23T23:04:04.751Z,15.10
2022-09-23T23:07:21.330Z,15.07
2022-09-23T23:10:53.452Z,14.59
2022-09-23T23:14:34.702Z,14.15
2022-09-23T23:17:46.190Z,14.54
2022-09-23T23:21:16.871Z,14.51
2022-09-23T23:24:51.734Z,14.84
2022-09-23T23:28:25.779Z,14.45
2022-09-23T23:31:56.466Z,14.78
2022-09-23T23:35:17.012Z,14.81
2022-09-23T23:39:02.456Z,14.61
2022-09-23T23:43:07.258Z,14.89
2022-09-23T23:46:02.484Z,14.28
2022-09-23T23:50:19.322Z,14.34
2022-09-23T23:53:20.532Z,14.50
2022-09-23T23:56:26.579Z,14.74
2022-09-23T23:59:37.340Z,14.46
